Laval-Ouest, Canada
Current Conditions -  °F | °C
As of 4:30 AM on Sunday 26 Oct 2014 (Local Time) from CYUL Reporting Station
Rain Showers Rain Showers  
Wind Chill:   Ceiling: 10000
Heat Index:   Visibility: 15mi
Dew Point:   Wind: 10mph
Humidity: 93%   Direction: 250°WSW
Pressure: 29.41"   Gusts: NA
Location:  45.55°N, 73.87°W
Report Text: CYUL 260830Z 25009KT 15SM -SHRA FEW010 OVC100 08/07 A2941 RMK SF1AC8 SF TR SLP960
Loading
Personal Weather Stations






























Interactive Weather Map
Tropical Storm Tracking
New forecast layout! Learn more

10-Day Weather Forecast

Advertisements
Track Severe Weather on mobile